• Join FlightAware (Why Join?)
  • Login
  • US Flag 
10:52AM EDT


 

Airport Tracker/Info


-or-


 

Live Flight TrackerFlight Track Log ✈ UAL1519 ✈ 16-May-2013 ✈ KEWR - KMCO

Flight Track Log - Related Links

Times and Time Zones

All times are in EDT time to prevent confusion due to time zone crossing. See the UAL1519 flight status page for this flight to view local times or setup timezone preferences in your user account.

Time Position Orientation Groundspeed Altitude Reporting Facility
EDT Latitude Longitude Course Direction KTS MPH feet Rate Location/Type
11:57AM 40.6724 -74.1847 199° South 49 56 1,000  Level FlightAware ADS-B
11:57AM 40.6662 -74.1874 198° South 159 183 1,500 3,000 Climbing FlightAware ADS-B
11:57AM 40.6638 -74.1876 184° South 161 185 1,600 2,520 Climbing FlightAware ADS-B
11:57AM 40.6611 -74.1876 180° South 167 192 1,800 1,860 Climbing FlightAware ADS-B
11:57AM 40.6485 -74.1861 175° South 179 206 2,200 1,620 Climbing FlightAware ADS-B
11:57AM 40.6456 -74.1860 179° South 194 223 2,300 1,860 Climbing FlightAware ADS-B
11:58AM 40.6161 -74.2190 220° Southwest 204 235 3,600 2,100 Climbing FlightAware ADS-B
11:58AM 40.6122 -74.2376 255° West 246 283 4,200 3,240 Climbing FlightAware ADS-B
11:59AM 40.6070 -74.2656 256° West 255 293 5,300 3,780 Climbing FlightAware ADS-B
11:59AM 40.6062 -74.2707 258° West 256 295 5,600 4,920 Climbing FlightAware ADS-B
11:59AM 40.6022 -74.2899 255° West 243 280 6,700 5,220 Climbing FlightAware ADS-B
11:59AM 40.6013 -74.2945 256° West 243 280 7,000 4,080 Climbing FlightAware ADS-B
11:59AM 40.5975 -74.3124 254° West 244 281 7,800 3,780 Climbing FlightAware ADS-B
11:59AM 40.5959 -74.3205 255° West 245 282 8,200 3,960 Climbing FlightAware ADS-B
11:59AM 40.5929 -74.3346 254° West 246 283 8,800 3,600 Climbing FlightAware ADS-B
12:00PM 40.5897 -74.3505 255° West 247 284 9,400 3,360 Climbing FlightAware ADS-B
12:00PM 40.5883 -74.3565 253° West 248 285 9,700 3,420 Climbing FlightAware ADS-B
12:00PM 40.5838 -74.3769 254° West 252 290 10,500 2,760 Climbing FlightAware ADS-B
12:00PM 40.5704 -74.4233 249° West 278 320 11,800 1,800 Climbing FlightAware ADS-B
12:01PM 40.5550 -74.4769 249° West 321 369 12,400 1,800 Climbing FlightAware ADS-B
12:01PM 40.5387 -74.5354 250° West 339 390 13,700 2,880 Climbing FlightAware ADS-B
12:02PM 40.5222 -74.5951 250° West 342 394 15,400 3,180 Climbing FlightAware ADS-B
12:03PM 40.5047 -74.6580 250° West 346 398 17,100 2,940 Climbing FlightAware ADS-B
12:03PM 40.4876 -74.7196 250° West 356 410 18,500 2,700 Climbing FlightAware ADS-B
12:03PM 40.4711 -74.7780 250° West 361 415 19,800 2,580 Climbing FlightAware ADS-B
12:04PM 40.4602 -74.8107 246° West 369 425 20,400 2,100 Climbing FlightAware ADS-B
12:04PM 40.4510 -74.8337 242° Southwest 374 430 20,800 2,340 Climbing FlightAware ADS-B
12:04PM 40.4307 -74.8727 236° Southwest 382 440 21,700 2,280 Climbing FlightAware ADS-B
12:05PM 40.3954 -74.9292 231° Southwest 391 450 22,800 2,220 Climbing FlightAware ADS-B
12:05PM 40.3600 -74.9843 230° Southwest 397 457 24,000 2,160 Climbing FlightAware ADS-B
12:06PM 40.3236 -75.0411 230° Southwest 405 466 25,000 1,920 Climbing FlightAware ADS-B
12:06PM 40.2862 -75.0993 230° Southwest 410 472 26,000 1,860 Climbing FlightAware ADS-B
12:07PM 40.2487 -75.1575 230° Southwest 418 481 26,900 1,740 Climbing FlightAware ADS-B
12:07PM 40.2103 -75.2170 230° Southwest 422 486 27,800 2,040 Climbing FlightAware ADS-B
12:08PM 40.1725 -75.2756 230° Southwest 420 483 29,000 2,580 Climbing FlightAware ADS-B
12:08PM 40.1351 -75.3331 230° Southwest 409 471 30,400 2,640 Climbing FlightAware ADS-B
12:09PM 40.0970 -75.3920 230° Southwest 406 467 31,700 2,160 Climbing FlightAware ADS-B
12:09PM 40.0563 -75.4547 230° Southwest 406 467 32,800 1,920 Climbing FlightAware ADS-B
12:10PM 40.0191 -75.5120 230° Southwest 405 466 33,800 1,860 Climbing FlightAware ADS-B
12:10PM 39.9823 -75.5684 230° Southwest 405 466 34,700 1,440 Climbing FlightAware ADS-B
12:11PM 39.9451 -75.6255 230° Southwest 409 471 35,300 1,320 Climbing FlightAware ADS-B
12:12PM 39.9058 -75.6855 230° Southwest 410 472 36,100 1,380 Climbing FlightAware ADS-B
12:12PM 39.8656 -75.7492 231° Southwest 410 472 36,800 1,380 Climbing FlightAware ADS-B
12:13PM 39.8284 -75.8093 231° Southwest 410 472 37,600 1,020 Climbing FlightAware ADS-B
12:13PM 39.7852 -75.8783 231° Southwest 409 471 38,000 300 Climbing FlightAware ADS-B
12:14PM 39.7475 -75.9382 231° Southwest 409 471 38,000  Level FlightAware ADS-B
12:15PM 39.6817 -76.0421 231° Southwest 413 475 38,000  Level FlightAware ADS-B
12:15PM 39.6423 -76.1042 231° Southwest 415 478 38,000  Level FlightAware ADS-B
12:16PM 39.5997 -76.1713 231° Southwest 416 479 38,000  Level FlightAware ADS-B
12:16PM 39.5566 -76.2380 230° Southwest 418 481 38,000  Level FlightAware ADS-B
12:17PM 39.5188 -76.2956 230° Southwest 419 482 38,000  Level FlightAware ADS-B
12:17PM 39.4790 -76.3562 230° Southwest 419 482 38,000  Level FlightAware ADS-B
12:18PM 39.4267 -76.4369 230° Southwest 417 480 38,000  Level FlightAware ADS-B
12:19PM 39.3891 -76.4966 231° Southwest 417 480 38,000  Level FlightAware ADS-B
12:19PM 39.3242 -76.5988 231° Southwest 416 479 38,000  Level FlightAware ADS-B
12:20PM 39.2806 -76.6665 230° Southwest 415 478 38,000  Level FlightAware ADS-B
12:21PM 39.2294 -76.7462 230° Southwest 413 475 38,000  Level FlightAware ADS-B
12:22PM 39.1731 -76.8334 230° Southwest 414 476 38,000  Level FlightAware ADS-B
12:22PM 39.1319 -76.8975 230° Southwest 414 476 38,000  Level FlightAware ADS-B
12:23PM 39.0938 -76.9564 230° Southwest 413 475 38,000  Level FlightAware ADS-B
12:23PM 39.0562 -77.0131 230° Southwest 415 478 38,000  Level FlightAware ADS-B
12:23PM 39.0375 -77.0380 226° Southwest 416 479 38,000  Level FlightAware ADS-B
12:24PM 38.9937 -77.0887 222° Southwest 418 481 38,000  Level FlightAware ADS-B
12:24PM 38.9498 -77.1367 220° Southwest 417 480 38,000  Level FlightAware ADS-B
12:25PM 38.9043 -77.1860 220° Southwest 415 478 38,000  Level FlightAware ADS-B
12:26PM 38.8440 -77.2516 220° Southwest 415 478 38,000  Level FlightAware ADS-B
12:26PM 38.7987 -77.3009 220° Southwest 415 478 38,000  Level FlightAware ADS-B
12:27PM 38.7520 -77.3518 220° Southwest 415 478 38,000  Level FlightAware ADS-B
12:27PM 38.7030 -77.4050 220° Southwest 417 480 38,000  Level FlightAware
12:27PM 38.6935 -77.4152 220° Southwest 417 480 38,000  Level FlightAware ADS-B
12:28PM 38.6380 -77.4750 220° Southwest 418 481 38,000  Level FlightAware
12:28PM 38.6269 -77.4873 221° Southwest 418 481 38,000  Level FlightAware ADS-B
12:29PM 38.5790 -77.5390 220° Southwest 417 480 38,000  Level FlightAware
12:29PM 38.5366 -77.5850 220° Southwest 418 481 38,000  Level FlightAware ADS-B
12:30PM 38.4528 -77.6749 220° Southwest 417 480 38,000  Level FlightAware ADS-B
12:31PM 38.3883 -77.7441 220° Southwest 417 480 38,000  Level FlightAware ADS-B
12:31PM 38.3340 -77.8020 220° Southwest 419 482 38,000  Level FlightAware
12:32PM 38.2690 -77.8720 220° Southwest 418 481 38,000  Level FlightAware
12:33PM 38.2110 -77.9340 220° Southwest 417 480 38,000  Level FlightAware
12:34PM 38.1450 -78.0040 220° Southwest 415 478 38,000  Level FlightAware
12:34PM 38.0840 -78.0680 220° Southwest 415 478 38,000  Level FlightAware
12:35PM 38.0170 -78.1390 220° Southwest 413 475 38,000  Level FlightAware
12:36PM 37.9580 -78.1980 218° Southwest 414 476 38,000  Level FlightAware
12:36PM 37.8950 -78.2570 216° Southwest 414 476 38,000  Level FlightAware
12:37PM 37.8290 -78.3190 217° Southwest 412 474 38,000  Level FlightAware
12:38PM 37.7670 -78.3780 217° Southwest 412 474 38,000  Level FlightAware
12:38PM 37.6970 -78.4440 217° Southwest 410 472 38,000  Level FlightAware
12:39PM 37.6370 -78.5010 217° Southwest 410 472 38,000  Level FlightAware
12:40PM 37.5560 -78.5760 216° Southwest 410 472 38,000  Level FlightAware
12:41PM 37.4850 -78.6440 217° Southwest 408 470 38,000  Level FlightAware
12:41PM 37.4340 -78.6920 217° Southwest 408 470 38,000  Level FlightAware
12:42PM 37.3710 -78.7500 216° Southwest 408 470 38,000  Level FlightAware
12:43PM 37.2980 -78.8200 217° Southwest 408 470 38,000  Level FlightAware
12:43PM 37.2540 -78.8600 216° Southwest 408 470 38,000  Level FlightAware
12:44PM 37.1780 -78.9300 216° Southwest 408 470 38,000  Level FlightAware
12:45PM 37.1260 -78.9770 216° Southwest 408 470 38,000  Level FlightAware
12:46PM 37.0740 -79.0240 216° Southwest 408 470 38,000  Level FlightAware
12:46PM 36.9780 -79.1160 217° Southwest 409 471 38,000  Level FlightAware
12:47PM 36.9190 -79.1710 217° Southwest 408 470 38,000  Level FlightAware
12:48PM 36.8570 -79.2270 216° Southwest 409 471 38,000  Level FlightAware
12:49PM 36.7520 -79.3240 217° Southwest 407 468 38,000  Level FlightAware
12:50PM 36.6910 -79.3790 216° Southwest 407 468 38,000  Level FlightAware
12:50PM 36.6390 -79.4260 216° Southwest 407 468 38,000  Level FlightAware
12:51PM 36.5880 -79.4730 217° Southwest 407 468 38,000  Level FlightAware
12:52PM 36.5360 -79.5200 216° Southwest 407 468 38,000  Level FlightAware
12:52PM 36.4710 -79.5780 216° Southwest 407 468 38,000  Level FlightAware
12:53PM 36.4190 -79.6250 216° Southwest 407 468 38,000  Level FlightAware
12:54PM 36.3670 -79.6720 216° Southwest 407 468 38,000  Level FlightAware
12:54PM 36.3160 -79.7190 217° Southwest 407 468 38,000  Level FlightAware
12:55PM 36.2640 -79.7650 216° Southwest 407 468 38,000  Level FlightAware
12:56PM 36.2120 -79.8120 216° Southwest 407 468 38,000  Level FlightAware
12:57PM 36.1470 -79.8700 216° Southwest 407 468 38,000  Level FlightAware
12:57PM 36.0950 -79.9170 216° Southwest 407 468 38,000  Level FlightAware
12:58PM 36.0440 -79.9630 216° Southwest 407 468 38,000  Level FlightAware
12:59PM 35.9920 -80.0100 216° Southwest 407 468 38,000  Level FlightAware
01:00PM 35.7294 -80.0789 216° Southwest 420 483 38,000  Level Atlanta Center
01:05PM 35.0530 -80.2970 216° Southwest 417 480 38,000  Level FlightAware
01:06PM 34.9710 -80.3230 195° South 418 481 38,000  Level FlightAware
01:07PM 34.9010 -80.3460 195° South 417 480 38,000  Level FlightAware
01:08PM 34.8140 -80.3740 195° South 416 479 38,000  Level FlightAware
01:08PM 34.7370 -80.3990 195° South 414 476 38,000  Level FlightAware
01:09PM 34.6650 -80.4220 195° South 412 474 38,000  Level FlightAware
01:10PM 34.5880 -80.4470 195° South 411 473 38,000  Level FlightAware
01:10PM 34.5220 -80.4680 195° South 411 473 38,000  Level FlightAware
01:11PM 34.4220 -80.5000 195° South 412 474 38,000  Level FlightAware
01:12PM 34.3550 -80.5210 195° South 412 474 38,000  Level FlightAware
01:13PM 34.2490 -80.5550 195° South 414 476 38,000  Level FlightAware
01:13PM 34.1620 -80.5820 194° South 416 479 38,000  Level FlightAware
01:14PM 34.0940 -80.6040 195° South 418 481 38,000  Level FlightAware
01:15PM 34.0000 -80.6330 194° South 420 483 38,000  Level FlightAware
01:16PM 33.9340 -80.6540 195° South 421 484 38,000  Level FlightAware
01:16PM 33.8550 -80.6780 194° South 423 487 38,000  Level FlightAware
01:17PM 33.7640 -80.7070 195° South 428 493 38,000  Level FlightAware
01:18PM 33.6860 -80.7310 194° South 430 495 38,000  Level FlightAware
01:18PM 33.6100 -80.7550 195° South 429 494 38,000  Level FlightAware
01:19PM 33.5240 -80.7820 195° South 430 495 38,000  Level FlightAware
01:20PM 33.4520 -80.8040 194° South 430 495 38,000  Level FlightAware
01:20PM 33.3590 -80.8320 194° South 430 495 38,000  Level FlightAware
01:21PM 33.2840 -80.8560 195° South 430 495 38,000  Level FlightAware
01:22PM 33.2080 -80.8790 194° South 430 495 38,000  Level FlightAware
01:23PM 33.0910 -80.9150 194° South 431 496 38,000  Level FlightAware
01:23PM 33.0130 -80.9390 194° South 432 497 38,000  Level FlightAware
01:24PM 32.9360 -80.9620 194° South 433 498 38,000  Level FlightAware
01:25PM 32.8510 -80.9880 194° South 432 497 38,000  Level FlightAware
01:26PM 32.7710 -81.0120 194° South 431 496 38,000  Level FlightAware
01:26PM 32.6860 -81.0350 193° South 433 498 38,000  Level FlightAware
01:27PM 32.6030 -81.0420 184° South 439 505 38,000  Level FlightAware
01:28PM 32.5230 -81.0410 179° South 439 505 38,000  Level FlightAware
01:29PM 32.4080 -81.0400 180° South 435 501 38,000  Level FlightAware
01:30PM 32.3080 -81.0410 180° South 433 498 38,000  Level FlightAware
01:30PM 32.2340 -81.0410 180° South 431 496 38,000  Level FlightAware
01:31PM 32.3750 -81.0400 360° North 430 495 38,000  Level FlightAware
01:32PM 32.0620 -81.0430 180° South 429 494 38,000  Level FlightAware
01:32PM 31.9770 -81.0460 182° South 431 496 38,000  Level FlightAware
01:33PM 31.8850 -81.0480 181° South 432 497 38,000  Level FlightAware
01:34PM 31.8080 -81.0500 181° South 433 498 38,000  Level FlightAware
01:35PM 31.6930 -81.0520 181° South 435 501 38,000  Level FlightAware
01:35PM 31.6180 -81.0540 181° South 436 502 38,000  Level FlightAware
01:36PM 31.5290 -81.0570 182° South 438 504 38,000  Level FlightAware
01:37PM 31.4010 -81.0590 181° South 440 506 38,000  Level FlightAware
01:38PM 31.3200 -81.0610 181° South 440 506 38,000  Level FlightAware
01:38PM 31.2500 -81.0620 181° South 440 506 38,000  Level FlightAware
01:39PM 31.1810 -81.0640 181° South 440 506 38,000  Level FlightAware
01:40PM 31.1120 -81.0650 181° South 440 506 38,000  Level FlightAware
01:40PM 31.0430 -81.0670 181° South 440 506 38,000  Level FlightAware
01:41PM 30.9740 -81.0680 181° South 440 506 38,000  Level FlightAware
01:42PM 30.8870 -81.0700 181° South 440 506 38,000  Level FlightAware
01:43PM 30.8180 -81.0710 181° South 440 506 38,000  Level FlightAware
01:43PM 30.7490 -81.0730 181° South 440 506 38,000  Level FlightAware
01:44PM 30.6800 -81.0740 181° South 440 506 38,000  Level FlightAware
01:45PM 30.6100 -81.0760 181° South 440 506 38,000  Level FlightAware
01:45PM 30.5410 -81.0770 181° South 440 506 38,000 -4,500 Level FlightAware
01:46PM 30.3040 -81.0840 181° South 445 512 31,300 -5,040 Descending FlightAware
01:47PM 30.2180 -81.0860 181° South 443 510 30,500 -840 Descending FlightAware
01:48PM 30.1440 -81.0880 181° South 439 505 29,800 -720 Descending FlightAware
01:49PM 30.1440 -81.0880 181° South 439 505 29,200 -480 Descending FlightAware
01:49PM 30.0750 -81.0890 181° South 439 505 29,200  Level FlightAware
01:50PM 29.9890 -81.0910 181° South 439 505 29,200  Level FlightAware
01:51PM 29.9200 -81.0920 181° South 439 505 29,200  Level FlightAware
01:51PM 29.8510 -81.0940 181° South 439 505 29,200  Level FlightAware
01:52PM 29.7820 -81.0950 181° South 439 505 29,200 -3,060 Level FlightAware
01:55PM 29.2180 -81.1010 181° South 13,300 -3,420 Descending FlightAware
01:56PM 29.1480 -81.0960 176° South 12,800 -600 Descending FlightAware
01:57PM 29.0800 -81.0900 176° South 327 376 12,400 -300 Descending FlightAware
01:58PM 29.0210 -81.0840 175° South 327 376 12,400 -420 Level FlightAware
01:58PM 28.9540 -81.0770 175° South 310 357 11,800 -1,140 Descending FlightAware
01:59PM 28.8950 -81.0650 170° South 280 322 10,800 -1,560 Descending FlightAware
02:00PM 28.8370 -81.0560 172° South 258 297 9,600 -1,920 Descending FlightAware
02:01PM 28.7940 -81.0750 201° Southwest 263 303 8,100 -2,160 Descending FlightAware
02:01PM 28.7890 -81.0840 238° Southwest 269 310 7,800 -1,560 Descending FlightAware
02:02PM 28.7350 -81.1840 238° Southwest 239 275 5,700 -1,140 Descending FlightAware
02:03PM 28.6970 -81.2430 234° Southwest 228 262 5,100 -1,020 Descending FlightAware
02:07PM 28.4910 -81.2760 188° South 159 183 1,100 -1,080 Descending FlightAware